createdAt,value
2022-12-04T00:00:33.905Z,18.40
2022-12-04T00:03:00.971Z,19.10
2022-12-04T00:05:28.053Z,16.97
2022-12-04T00:07:55.060Z,19.30
2022-12-04T00:10:22.097Z,17.33
2022-12-04T00:12:49.130Z,17.67
2022-12-04T00:15:25.313Z,18.63
2022-12-04T00:17:52.982Z,18.17
2022-12-04T00:20:20.142Z,20.10
2022-12-04T00:22:47.171Z,20.07
2022-12-04T00:25:14.245Z,18.70
2022-12-04T00:27:41.397Z,17.80
2022-12-04T00:30:08.858Z,19.77
2022-12-04T00:32:36.071Z,19.40
2022-12-04T00:35:03.691Z,17.70
2022-12-04T00:37:30.749Z,18.73
2022-12-04T00:39:57.840Z,17.17
2022-12-04T00:42:24.891Z,19.43
2022-12-04T00:44:51.886Z,18.70
2022-12-04T00:47:18.945Z,17.30
2022-12-04T00:49:45.924Z,17.20
2022-12-04T00:52:12.966Z,19.10
2022-12-04T00:54:39.949Z,17.83
2022-12-04T00:57:06.973Z,18.43
2022-12-04T00:59:34.225Z,18.57
2022-12-04T01:02:01.408Z,18.57
2022-12-04T01:04:28.538Z,17.27
2022-12-04T01:06:58.039Z,19.07
2022-12-04T01:09:28.892Z,17.47
2022-12-04T01:11:56.028Z,16.97
2022-12-04T01:14:23.120Z,16.07
2022-12-04T01:16:50.516Z,19.73
2022-12-04T01:19:20.620Z,17.57
2022-12-04T01:21:47.740Z,18.10
2022-12-04T01:24:14.862Z,18.50
2022-12-04T01:26:41.971Z,17.77
2022-12-04T01:29:09.037Z,18.63
2022-12-04T01:31:36.555Z,19.43
2022-12-04T01:34:04.247Z,17.03
2022-12-04T01:36:31.574Z,17.90
2022-12-04T01:38:59.585Z,17.30
2022-12-04T01:41:29.127Z,19.60
2022-12-04T01:44:30.161Z,18.60
2022-12-04T01:47:01.559Z,18.57
2022-12-04T01:49:45.058Z,20.10
2022-12-04T01:52:22.136Z,21.57
2022-12-04T01:54:57.091Z,20.60
2022-12-04T01:57:29.494Z,21.10
2022-12-04T02:00:00.537Z,23.60
2022-12-04T02:02:32.329Z,20.60
2022-12-04T02:05:00.858Z,20.80
2022-12-04T02:07:28.824Z,22.37
2022-12-04T02:09:56.541Z,20.23
2022-12-04T02:12:49.274Z,18.80
2022-12-04T02:15:23.533Z,21.73
2022-12-04T02:18:02.645Z,19.37
2022-12-04T02:20:43.540Z,19.70
2022-12-04T02:23:22.494Z,19.10
2022-12-04T02:26:22.827Z,21.17
2022-12-04T02:28:57.749Z,20.67
2022-12-04T02:31:38.683Z,19.70
2022-12-04T02:34:26.836Z,18.47
2022-12-04T02:36:59.091Z,20.53
2022-12-04T02:39:41.594Z,22.23
2022-12-04T02:42:19.387Z,17.97
2022-12-04T02:45:09.225Z,21.53
2022-12-04T02:47:38.533Z,18.43
2022-12-04T02:50:10.288Z,19.33
2022-12-04T02:52:41.578Z,20.80
2022-12-04T02:55:21.760Z,21.90
2022-12-04T02:57:53.306Z,19.33
2022-12-04T03:00:21.720Z,22.63
2022-12-04T03:03:04.837Z,20.90
2022-12-04T03:05:41.643Z,20.30
2022-12-04T03:08:14.553Z,20.57
2022-12-04T03:10:54.577Z,19.70
2022-12-04T03:13:40.469Z,21.90
2022-12-04T03:16:10.565Z,20.17
2022-12-04T03:18:46.416Z,23.80
2022-12-04T03:21:26.789Z,19.73
2022-12-04T03:24:17.746Z,20.00
2022-12-04T03:26:58.185Z,21.23
2022-12-04T03:29:41.607Z,19.50
2022-12-04T03:32:24.059Z,19.80
2022-12-04T03:34:59.038Z,18.83
2022-12-04T03:37:50.344Z,18.23
2022-12-04T03:40:23.817Z,18.03
2022-12-04T03:43:05.931Z,19.67
2022-12-04T03:46:11.770Z,17.30
2022-12-04T03:48:49.913Z,18.37
2022-12-04T03:51:28.380Z,20.20
2022-12-04T03:54:02.571Z,20.30
2022-12-04T03:56:36.283Z,19.30
2022-12-04T03:59:14.816Z,20.23
2022-12-04T04:01:48.687Z,19.87
2022-12-04T04:04:21.276Z,19.67
2022-12-04T04:06:55.137Z,19.13
2022-12-04T04:09:25.937Z,20.00
2022-12-04T04:12:03.224Z,22.17
2022-12-04T04:14:56.232Z,21.70
2022-12-04T04:17:46.558Z,19.20
2022-12-04T04:20:39.373Z,16.93
2022-12-04T04:23:28.095Z,20.63
2022-12-04T04:25:57.786Z,18.47
2022-12-04T04:28:42.636Z,18.43
2022-12-04T04:31:43.634Z,17.57
2022-12-04T04:34:33.654Z,19.53
2022-12-04T04:37:06.499Z,18.20
2022-12-04T04:39:36.921Z,18.17
2022-12-04T04:42:21.740Z,19.50
2022-12-04T04:45:08.528Z,20.00
2022-12-04T04:47:43.420Z,18.40
2022-12-04T04:50:12.321Z,19.50
2022-12-04T04:52:43.577Z,18.23
2022-12-04T04:55:11.294Z,20.70
2022-12-04T04:57:38.460Z,21.73
2022-12-04T05:00:09.790Z,19.57
2022-12-04T05:02:37.252Z,21.93
2022-12-04T05:05:05.622Z,18.73
2022-12-04T05:07:32.705Z,17.27
2022-12-04T05:09:59.920Z,18.53
2022-12-04T05:12:27.189Z,22.03
2022-12-04T05:14:54.212Z,18.83
2022-12-04T05:17:21.261Z,20.43
2022-12-04T05:19:55.292Z,21.17
2022-12-04T05:22:27.075Z,20.43
2022-12-04T05:24:54.293Z,18.30
2022-12-04T05:27:22.287Z,20.30
2022-12-04T05:29:51.667Z,19.33
2022-12-04T05:32:18.754Z,19.23
2022-12-04T05:34:51.308Z,20.40
2022-12-04T05:37:19.507Z,20.40
2022-12-04T05:39:47.224Z,18.50
2022-12-04T05:42:15.039Z,21.33
2022-12-04T05:44:41.971Z,20.10
2022-12-04T05:47:09.133Z,20.40
2022-12-04T05:49:36.283Z,19.80
2022-12-04T05:52:05.212Z,18.67
2022-12-04T05:54:32.371Z,20.17
2022-12-04T05:56:59.545Z,20.10
2022-12-04T05:59:26.580Z,20.47
2022-12-04T06:01:53.651Z,19.93
2022-12-04T06:04:20.955Z,19.60
2022-12-04T06:06:48.034Z,18.80
2022-12-04T06:09:15.172Z,17.63
2022-12-04T06:11:42.845Z,19.83
2022-12-04T06:14:13.317Z,18.97
2022-12-04T06:16:44.153Z,19.60
2022-12-04T06:19:21.798Z,21.70
2022-12-04T06:21:51.236Z,17.87
2022-12-04T06:24:21.726Z,19.97
2022-12-04T06:27:18.605Z,19.37
2022-12-04T06:29:36.344Z,19.33
2022-12-04T06:32:03.680Z,19.37
2022-12-04T06:34:30.880Z,20.60
2022-12-04T06:36:58.005Z,21.13
2022-12-04T06:39:25.089Z,18.73
2022-12-04T06:41:52.090Z,17.90
2022-12-04T06:44:19.185Z,19.83
2022-12-04T06:46:47.579Z,18.17
2022-12-04T06:49:15.040Z,18.43
2022-12-04T06:51:42.114Z,19.57
2022-12-04T06:54:10.390Z,18.20
2022-12-04T06:56:37.596Z,17.40
2022-12-04T06:59:05.135Z,20.53
2022-12-04T07:01:34.338Z,17.03
2022-12-04T07:04:04.028Z,19.00
2022-12-04T07:06:33.785Z,18.30
2022-12-04T07:09:02.149Z,16.87
2022-12-04T07:11:30.273Z,17.17
2022-12-04T07:13:57.320Z,16.50
2022-12-04T07:16:26.037Z,17.70
2022-12-04T07:18:56.828Z,16.87
2022-12-04T07:21:26.362Z,16.77
2022-12-04T07:23:56.213Z,15.80
2022-12-04T07:26:24.308Z,16.50
2022-12-04T07:28:51.827Z,16.47
2022-12-04T07:31:21.560Z,15.73
2022-12-04T07:33:49.708Z,15.93
2022-12-04T07:36:22.353Z,15.50
2022-12-04T07:38:49.818Z,17.47
2022-12-04T07:41:17.602Z,15.80
2022-12-04T07:43:44.856Z,16.60
2022-12-04T07:46:21.162Z,16.90
2022-12-04T07:48:48.237Z,17.80
2022-12-04T07:51:21.879Z,15.23
2022-12-04T07:53:50.310Z,18.60
2022-12-04T07:56:18.648Z,17.00
2022-12-04T07:58:46.513Z,15.97
2022-12-04T08:01:17.513Z,16.30
2022-12-04T08:03:48.502Z,17.50
2022-12-04T08:06:21.880Z,17.40
2022-12-04T08:08:52.918Z,15.93
2022-12-04T08:11:22.726Z,16.90
2022-12-04T08:13:57.811Z,16.80
2022-12-04T08:16:25.756Z,16.60
2022-12-04T08:18:54.333Z,16.10
2022-12-04T08:21:23.751Z,17.00
2022-12-04T08:23:52.937Z,16.53
2022-12-04T08:26:21.545Z,18.40
2022-12-04T08:28:48.957Z,16.53
2022-12-04T08:31:21.155Z,17.07
2022-12-04T08:33:49.632Z,18.03
2022-12-04T08:36:20.530Z,18.47
2022-12-04T08:38:48.845Z,16.23
2022-12-04T08:41:18.113Z,18.30
2022-12-04T08:43:45.166Z,19.57
2022-12-04T08:46:15.229Z,18.00
2022-12-04T08:48:42.763Z,19.80
2022-12-04T08:51:18.547Z,18.80
2022-12-04T08:53:46.189Z,20.43
2022-12-04T08:56:14.062Z,18.93
2022-12-04T08:58:41.130Z,19.73
2022-12-04T09:01:10.540Z,17.40
2022-12-04T09:03:38.621Z,19.00
2022-12-04T09:06:07.655Z,17.50
2022-12-04T09:08:36.100Z,18.90
2022-12-04T09:11:23.131Z,16.93
2022-12-04T09:13:50.425Z,18.50
2022-12-04T09:16:23.665Z,17.73
2022-12-04T09:18:51.675Z,19.00
2022-12-04T09:21:21.074Z,18.07
2022-12-04T09:23:48.545Z,17.00
2022-12-04T09:26:33.531Z,20.13
2022-12-04T09:29:02.732Z,19.27
2022-12-04T09:31:30.375Z,18.60
2022-12-04T09:34:01.280Z,20.53
2022-12-04T09:36:28.680Z,20.00
2022-12-04T09:38:55.757Z,18.03
2022-12-04T09:41:58.215Z,20.43
2022-12-04T09:44:33.375Z,19.70
2022-12-04T09:47:05.951Z,23.07
2022-12-04T09:49:43.161Z,20.87
2022-12-04T09:52:34.636Z,21.80
2022-12-04T09:55:05.336Z,19.70
2022-12-04T09:57:40.752Z,20.30
2022-12-04T10:00:15.536Z,20.00
2022-12-04T10:02:52.739Z,22.27
2022-12-04T10:05:42.966Z,21.03
2022-12-04T10:08:21.837Z,20.27
2022-12-04T10:11:06.879Z,22.37
2022-12-04T10:13:45.231Z,20.40
2022-12-04T10:16:22.242Z,22.40
2022-12-04T10:19:17.957Z,22.83
2022-12-04T10:22:03.082Z,22.40
2022-12-04T10:24:45.416Z,20.70
2022-12-04T10:27:30.863Z,21.43
2022-12-04T10:30:22.125Z,19.60
2022-12-04T10:33:18.924Z,22.27
2022-12-04T10:35:52.251Z,20.87
2022-12-04T10:38:42.835Z,19.77
2022-12-04T10:41:29.917Z,21.37
2022-12-04T10:43:57.150Z,19.60
2022-12-04T10:46:36.369Z,20.80
2022-12-04T10:49:26.682Z,20.50
2022-12-04T10:51:55.099Z,19.90
2022-12-04T10:54:22.188Z,20.30
2022-12-04T10:56:53.188Z,20.00
2022-12-04T10:59:20.512Z,20.23
2022-12-04T11:01:48.002Z,18.37
2022-12-04T11:04:24.965Z,18.37
2022-12-04T11:07:20.730Z,15.50
2022-12-04T11:10:03.460Z,15.53
2022-12-04T11:12:31.909Z,15.97
2022-12-04T11:15:08.140Z,15.57
2022-12-04T11:17:35.254Z,13.40
2022-12-04T11:20:08.067Z,12.93
2022-12-04T11:22:48.217Z,12.80
2022-12-04T11:25:19.872Z,11.70
2022-12-04T11:27:59.751Z,9.30
2022-12-04T11:30:34.207Z,7.83
2022-12-04T11:33:03.380Z,9.57
2022-12-04T11:35:31.706Z,8.90
2022-12-04T11:38:16.660Z,7.80
2022-12-04T11:40:48.973Z,8.83
2022-12-04T11:43:18.158Z,8.50
2022-12-04T11:46:04.177Z,8.40
2022-12-04T11:48:40.785Z,7.80
2022-12-04T11:51:13.965Z,8.60
2022-12-04T11:53:55.787Z,6.97
2022-12-04T11:57:16.359Z,7.30
2022-12-04T11:59:51.997Z,6.90
2022-12-04T12:02:47.284Z,5.70
2022-12-04T12:05:56.603Z,5.80
2022-12-04T12:08:23.587Z,6.20
2022-12-04T12:11:12.151Z,5.53
2022-12-04T12:14:08.619Z,6.13
2022-12-04T12:16:49.935Z,5.93
2022-12-04T12:19:21.412Z,6.90
2022-12-04T12:22:08.916Z,5.80
2022-12-04T12:24:52.483Z,6.03
2022-12-04T12:27:34.445Z,6.30
2022-12-04T12:30:01.446Z,5.47
2022-12-04T12:32:54.104Z,6.77
2022-12-04T12:35:26.638Z,6.43
2022-12-04T12:37:56.417Z,6.23
2022-12-04T12:40:49.722Z,6.70
2022-12-04T12:43:31.576Z,6.60
2022-12-04T12:46:30.838Z,5.60
2022-12-04T12:49:15.479Z,7.60
2022-12-04T12:51:55.443Z,7.00
2022-12-04T12:54:39.746Z,6.83
2022-12-04T12:57:14.436Z,6.40
2022-12-04T13:00:00.171Z,7.30
2022-12-04T13:02:58.081Z,7.70
2022-12-04T13:05:41.008Z,7.40
2022-12-04T13:08:45.036Z,7.40
2022-12-04T13:11:22.598Z,7.87
2022-12-04T13:13:57.159Z,8.43
2022-12-04T13:16:47.709Z,8.97
2022-12-04T13:19:26.663Z,7.60
2022-12-04T13:22:18.001Z,8.90
2022-12-04T13:25:06.431Z,8.63
2022-12-04T13:27:57.404Z,9.17
2022-12-04T13:30:38.105Z,8.23
2022-12-04T13:33:43.252Z,8.40
2022-12-04T13:36:28.778Z,7.70
2022-12-04T13:39:20.523Z,9.50
2022-12-04T13:41:56.445Z,8.60
2022-12-04T13:44:28.024Z,8.17
2022-12-04T13:46:57.974Z,8.20
2022-12-04T13:49:28.700Z,8.30
2022-12-04T13:51:58.451Z,7.63
2022-12-04T13:54:31.503Z,9.07
2022-12-04T13:57:22.754Z,7.80
2022-12-04T14:00:00.971Z,9.43
2022-12-04T14:02:35.994Z,7.40
2022-12-04T14:05:06.973Z,7.57
2022-12-04T14:07:56.373Z,7.70
2022-12-04T14:10:30.472Z,7.43
2022-12-04T14:13:08.540Z,9.10
2022-12-04T14:15:38.132Z,7.40
2022-12-04T14:18:10.889Z,7.67
2022-12-04T14:20:40.546Z,7.23
2022-12-04T14:23:26.681Z,8.57
2022-12-04T14:25:58.831Z,8.60
2022-12-04T14:28:33.928Z,8.23
2022-12-04T14:31:08.463Z,8.70
2022-12-04T14:33:52.407Z,9.30
2022-12-04T14:36:37.531Z,9.50
2022-12-04T14:39:27.763Z,9.33
2022-12-04T14:42:06.575Z,11.20
2022-12-04T14:44:33.866Z,9.50
2022-12-04T14:47:24.097Z,9.97
2022-12-04T14:50:15.788Z,9.47
2022-12-04T14:52:48.860Z,8.40
2022-12-04T14:55:29.778Z,9.27
2022-12-04T14:58:30.079Z,10.93
2022-12-04T15:01:07.156Z,9.13
2022-12-04T15:03:43.663Z,10.50
2022-12-04T15:06:29.688Z,10.40
2022-12-04T15:09:18.271Z,10.90
2022-12-04T15:12:35.749Z,9.83
2022-12-04T15:15:11.926Z,11.70
2022-12-04T15:17:39.097Z,12.03
2022-12-04T15:20:15.893Z,11.23
2022-12-04T15:22:43.589Z,12.80
2022-12-04T15:25:22.790Z,13.10
2022-12-04T15:27:53.455Z,12.40
2022-12-04T15:30:23.919Z,12.93
2022-12-04T15:32:53.600Z,13.50
2022-12-04T15:35:29.981Z,12.17
2022-12-04T15:37:57.443Z,12.23
2022-12-04T15:40:27.912Z,14.87
2022-12-04T15:43:06.102Z,13.03
2022-12-04T15:45:34.503Z,14.40
2022-12-04T15:48:04.896Z,15.27
2022-12-04T15:50:31.997Z,13.60
2022-12-04T15:53:16.248Z,14.37
2022-12-04T15:55:50.729Z,15.43
2022-12-04T15:58:28.307Z,14.10
2022-12-04T16:01:02.049Z,15.60
2022-12-04T16:03:48.298Z,16.80
2022-12-04T16:06:23.097Z,14.67
2022-12-04T16:08:54.652Z,15.60
2022-12-04T16:11:21.631Z,14.27
2022-12-04T16:14:01.664Z,15.23
2022-12-04T16:16:29.087Z,14.13
2022-12-04T16:18:56.430Z,15.90
2022-12-04T16:21:29.660Z,14.93
2022-12-04T16:24:07.102Z,13.73
2022-12-04T16:26:34.213Z,15.03
2022-12-04T16:29:01.413Z,15.00
2022-12-04T16:31:28.515Z,14.90
2022-12-04T16:33:55.633Z,14.90
2022-12-04T16:36:22.640Z,15.70
2022-12-04T16:38:50.545Z,15.30
2022-12-04T16:41:19.001Z,15.60
2022-12-04T16:43:52.310Z,14.40
2022-12-04T16:46:20.780Z,15.00
2022-12-04T16:48:47.827Z,14.33
2022-12-04T16:51:27.031Z,13.43
2022-12-04T16:53:54.787Z,14.47
2022-12-04T16:56:22.477Z,13.13
2022-12-04T16:58:50.084Z,14.87
2022-12-04T17:01:26.420Z,14.07
2022-12-04T17:03:53.573Z,16.27
2022-12-04T17:06:20.950Z,14.23
2022-12-04T17:08:47.983Z,15.70
2022-12-04T17:11:17.126Z,14.07
2022-12-04T17:13:44.812Z,14.97
2022-12-04T17:16:15.073Z,15.20
2022-12-04T17:18:43.572Z,14.00
2022-12-04T17:21:13.066Z,15.13
2022-12-04T17:23:40.873Z,15.33
2022-12-04T17:26:10.281Z,12.83
2022-12-04T17:28:37.732Z,13.83
2022-12-04T17:31:12.552Z,14.40
2022-12-04T17:33:39.680Z,13.20
2022-12-04T17:36:11.695Z,14.10
2022-12-04T17:38:40.799Z,15.07
2022-12-04T17:41:09.372Z,14.00
2022-12-04T17:43:36.934Z,13.00
2022-12-04T17:46:10.686Z,13.40
2022-12-04T17:48:38.459Z,13.73
2022-12-04T17:51:15.175Z,12.77
2022-12-04T17:53:42.512Z,14.03
2022-12-04T17:56:12.951Z,14.27
2022-12-04T17:58:40.514Z,13.23
2022-12-04T18:01:13.445Z,14.03
2022-12-04T18:03:41.333Z,14.40
2022-12-04T18:06:16.731Z,15.47
2022-12-04T18:08:49.749Z,14.83
2022-12-04T18:11:20.718Z,15.13
2022-12-04T18:13:56.845Z,14.97
2022-12-04T18:16:24.292Z,15.50
2022-12-04T18:18:54.173Z,15.30
2022-12-04T18:21:21.290Z,16.67
2022-12-04T18:23:48.539Z,16.20
2022-12-04T18:26:21.223Z,14.53
2022-12-04T18:28:48.555Z,15.03
2022-12-04T18:31:17.694Z,15.20
2022-12-04T18:33:45.814Z,15.33
2022-12-04T18:36:16.142Z,16.40
2022-12-04T18:38:43.669Z,16.73
2022-12-04T18:41:13.294Z,16.00
2022-12-04T18:43:44.885Z,15.60
2022-12-04T18:46:14.566Z,17.07
2022-12-04T18:48:42.756Z,18.37
2022-12-04T18:51:20.045Z,15.50
2022-12-04T18:53:47.694Z,15.77
2022-12-04T18:56:15.188Z,17.63
2022-12-04T18:58:42.894Z,16.23
2022-12-04T19:01:13.810Z,15.40
2022-12-04T19:03:41.637Z,15.70
2022-12-04T19:06:09.274Z,17.13
2022-12-04T19:08:42.781Z,17.90
2022-12-04T19:11:15.971Z,15.73
2022-12-04T19:13:43.411Z,16.50
2022-12-04T19:16:12.799Z,15.17
2022-12-04T19:18:40.029Z,16.27
2022-12-04T19:21:08.273Z,15.13
2022-12-04T19:23:35.585Z,14.97
2022-12-04T19:26:03.470Z,18.23
2022-12-04T19:28:30.535Z,16.03
2022-12-04T19:30:58.209Z,15.17
2022-12-04T19:33:25.714Z,17.10
2022-12-04T19:36:04.195Z,16.97
2022-12-04T19:38:32.869Z,15.23
2022-12-04T19:41:18.121Z,15.50
2022-12-04T19:43:48.082Z,16.30
2022-12-04T19:46:19.280Z,16.10
2022-12-04T19:48:50.300Z,17.03
2022-12-04T19:51:19.765Z,15.40
2022-12-04T19:53:48.434Z,15.50
2022-12-04T19:56:22.885Z,14.63
2022-12-04T19:58:52.326Z,16.87
2022-12-04T20:01:21.722Z,16.33
2022-12-04T20:03:48.772Z,15.33
2022-12-04T20:06:18.359Z,16.10
2022-12-04T20:08:46.772Z,13.87
2022-12-04T20:11:18.621Z,15.37
2022-12-04T20:13:47.396Z,16.10
2022-12-04T20:16:19.509Z,16.30
2022-12-04T20:18:46.735Z,15.23
2022-12-04T20:21:14.503Z,15.40
2022-12-04T20:23:46.589Z,15.23
2022-12-04T20:26:15.730Z,14.67
2022-12-04T20:28:43.193Z,15.20
2022-12-04T20:31:40.346Z,16.30
2022-12-04T20:34:12.812Z,14.33
2022-12-04T20:36:42.849Z,15.97
2022-12-04T20:39:14.585Z,16.53
2022-12-04T20:41:41.850Z,15.20
2022-12-04T20:44:16.188Z,14.73
2022-12-04T20:46:43.526Z,14.87
2022-12-04T20:49:20.820Z,19.30
2022-12-04T20:51:50.524Z,15.57
2022-12-04T20:54:19.364Z,15.90
2022-12-04T20:56:48.949Z,15.57
2022-12-04T20:59:18.274Z,14.50
2022-12-04T21:01:45.560Z,15.10
2022-12-04T21:04:17.808Z,14.90
2022-12-04T21:06:47.107Z,14.37
2022-12-04T21:09:20.465Z,13.57
2022-12-04T21:11:50.560Z,16.33
2022-12-04T21:14:39.220Z,14.03
2022-12-04T21:17:09.583Z,14.63
2022-12-04T21:19:36.922Z,14.33
2022-12-04T21:22:04.378Z,14.43
2022-12-04T21:24:36.493Z,13.20
2022-12-04T21:27:03.514Z,12.20
2022-12-04T21:29:30.684Z,12.47
2022-12-04T21:31:57.888Z,12.33
2022-12-04T21:34:24.956Z,12.90
2022-12-04T21:36:52.034Z,12.53
2022-12-04T21:39:19.870Z,11.87
2022-12-04T21:42:05.521Z,11.63
2022-12-04T21:44:32.565Z,11.97
2022-12-04T21:46:59.794Z,11.60
2022-12-04T21:49:27.571Z,10.67
2022-12-04T21:51:57.830Z,11.50
2022-12-04T21:54:27.138Z,10.47
2022-12-04T21:56:54.768Z,9.50
2022-12-04T21:59:22.027Z,10.77
2022-12-04T22:01:49.307Z,10.00
2022-12-04T22:04:16.713Z,8.47
2022-12-04T22:06:43.928Z,9.67
2022-12-04T22:09:12.484Z,10.20
2022-12-04T22:11:41.696Z,10.80
2022-12-04T22:14:10.250Z,11.07
2022-12-04T22:16:41.865Z,10.07
2022-12-04T22:19:13.635Z,9.50
2022-12-04T22:21:40.885Z,11.30
2022-12-04T22:24:08.616Z,10.67
2022-12-04T22:26:35.796Z,11.20
2022-12-04T22:29:20.743Z,10.13
2022-12-04T22:31:50.634Z,10.83
2022-12-04T22:34:18.009Z,9.80
2022-12-04T22:36:45.050Z,10.43
2022-12-04T22:39:12.200Z,11.97
2022-12-04T22:41:39.658Z,10.20
2022-12-04T22:44:06.720Z,11.60
2022-12-04T22:46:34.213Z,10.93
2022-12-04T22:49:01.313Z,10.67
2022-12-04T22:51:28.998Z,9.83
2022-12-04T22:53:57.763Z,10.57
2022-12-04T22:56:30.278Z,11.63
2022-12-04T22:58:58.351Z,10.60
2022-12-04T23:01:28.152Z,11.43
2022-12-04T23:03:56.121Z,11.00
2022-12-04T23:06:25.980Z,10.80
2022-12-04T23:09:01.195Z,12.20
2022-12-04T23:11:29.053Z,11.40
2022-12-04T23:14:01.462Z,11.40
2022-12-04T23:16:31.025Z,12.57
2022-12-04T23:18:58.672Z,10.40
2022-12-04T23:21:27.206Z,11.10
2022-12-04T23:23:55.550Z,10.73
2022-12-04T23:26:29.983Z,10.10
2022-12-04T23:28:57.891Z,10.50
2022-12-04T23:31:25.774Z,11.50
2022-12-04T23:33:52.802Z,10.90
2022-12-04T23:36:20.146Z,11.27
2022-12-04T23:38:47.875Z,10.50
2022-12-04T23:41:19.170Z,10.20
2022-12-04T23:43:47.478Z,10.30
2022-12-04T23:46:16.655Z,11.23
2022-12-04T23:48:45.217Z,11.37
2022-12-04T23:51:14.160Z,10.57
2022-12-04T23:53:41.632Z,12.37
2022-12-04T23:56:16.038Z,10.47
2022-12-04T23:58:44.301Z,10.00
